Grand Marais, Minnesota
Current Conditions -  °F | °C
As of 10:54 PM on Monday 20 Oct 2014 (Local Time) from KCKC Reporting Station
Overcast Overcast  
Wind Chill:   Ceiling: 1700
Heat Index:   Visibility: 10mi
Dew Point: -2°   Wind: 5mph
Humidity: 75%   Direction: 10°N
Pressure: 30.13"   Gusts: NA
Location:  47.75°N, 90.33°W
Report Text: KCKC 210354Z AUTO 01004KT 10SM OVC017 02/M02 A3013 RMK AO2
Loading
Personal Weather Stations






























Interactive Weather Map New forecast layout! Learn more

10-Day Weather Forecast

Advertisements
Track Severe Weather on mobile